Little Cedar, Iowa
Current Conditions -  °F | °C
As of 2:36 AM on Saturday 29 Nov 2014 (Local Time) from KAUM Reporting Station
Haze Haze  
Wind Chill: 17°   Ceiling: Unl
Heat Index: 25°   Visibility: 4mi
Dew Point: 21°   Wind: 7mph
Humidity: 86%   Direction: 140°SE
Pressure: 29.59"   Gusts: NA
Location:  43.38°N, 92.73°W
Report Text: KAUM 290836Z AUTO 14006KT 4SM BR CLR M04/M06 A2959 RMK AO2
Loading
Personal Weather Stations






























Interactive Weather Map New forecast layout! Learn more

10-Day Weather Forecast

Advertisements
Track Severe Weather on mobile